Time;durP1;ratioP1;P1;durP2;ratioP2;P2;SDS_P1;SDS_P2;PMS_P1;PMS_P2;Temp;Humidity;BMP_temperature;BMP_pressure;BME280_temperature;BME280_humidity;BME280_pressure;Samples;Min_cycle;Max_cycle;Signal;HPM_P1;HPM_P2
2022/07/14 00:00:51;;;;;;;11.10;2.73;;;;;;;17.69;76.66;102099.22;5073061;28;19912;-36
2022/07/14 00:03:16;;;;;;;6.93;1.92;;;;;;;17.78;77.50;102107.88;5072831;28;20275;-36
2022/07/14 00:05:41;;;;;;;8.05;2.75;;;;;;;17.66;78.51;102107.91;5073229;28;20031;-36
2022/07/14 00:08:06;;;;;;;;;;;;;;;17.93;75.35;102107.28;5073420;28;20035;-36
2022/07/14 00:10:32;;;;;;;5.57;2.03;;;;;;;17.63;77.45;102102.13;5072587;28;20379;-36
2022/07/14 00:12:57;;;;;;;;;;;;;;;17.82;75.31;102106.31;5073865;28;20263;-36
2022/07/14 00:15:23;;;;;;;7.90;1.90;;;;;;;17.50;78.27;102087.66;5072876;28;20310;-36
2022/07/14 00:17:49;;;;;;;;;;;;;;;17.79;75.39;102111.44;5073020;28;20302;-36
2022/07/14 00:20:15;;;;;;;11.30;2.97;;;;;;;17.54;78.65;102098.13;5072246;28;19908;-36
2022/07/14 00:22:40;;;;;;;;;;;;;;;17.78;75.93;102098.84;5073253;28;20111;-36
2022/07/14 00:25:07;;;;;;;8.80;2.40;;;;;;;17.42;78.75;102081.78;5072487;28;19977;-36
2022/07/14 00:27:34;;;;;;;9.02;2.88;;;;;;;17.43;78.99;102087.00;5072974;28;20029;-36
2022/07/14 00:29:59;;;;;;;8.35;2.40;;;;;;;17.48;79.50;102083.53;5072663;28;20028;-36
2022/07/14 00:32:24;;;;;;;;;;;;;;;17.69;76.38;102084.72;5072556;28;20035;-36
2022/07/14 00:34:49;;;;;;;9.73;2.47;;;;;;;17.58;78.48;102083.72;5072514;28;19912;-36
2022/07/14 00:37:14;;;;;;;;;;;;;;;17.73;76.26;102081.25;5073687;28;20035;-36
2022/07/14 00:39:55;;;;;;;9.23;2.37;;;;;;;17.53;78.24;102086.38;5072452;28;20327;-36
2022/07/14 00:42:32;;;;;;;6.95;2.33;;;;;;;17.55;78.04;102097.03;5072688;28;20115;-36
2022/07/14 00:44:59;;;;;;;7.82;2.55;;;;;;;17.40;79.34;102083.94;5072845;28;20469;-36
2022/07/14 00:47:24;;;;;;;9.20;2.70;;;;;;;17.39;79.59;102082.28;5072569;28;20333;-36
2022/07/14 00:49:53;;;;;;;;;;;;;;;17.61;77.05;102079.63;5072750;28;20033;-36
2022/07/14 00:52:20;;;;;;;7.38;2.50;;;;;;;17.24;79.00;102066.44;5073260;28;20402;-36
2022/07/14 00:54:45;;;;;;;12.40;2.80;;;;;;;17.33;79.67;102083.28;5071934;28;20484;-36
2022/07/14 00:57:11;;;;;;;;;;;;;;;17.54;76.95;102087.19;5073220;28;20025;-36
2022/07/14 00:59:36;;;;;;;9.27;2.35;;;;;;;17.23;79.71;102083.91;5071895;28;20332;-36
2022/07/14 01:02:01;;;;;;;;;;;;;;;17.47;77.00;102090.06;5072504;28;20483;-36
2022/07/14 01:04:27;;;;;;;8.60;2.20;;;;;;;17.08;80.04;102075.41;5072504;28;19991;-35
2022/07/14 01:06:52;;;;;;;;;;;;;;;17.40;76.98;102092.13;5076076;28;20024;-36
2022/07/14 01:09:17;;;;;;;12.10;2.37;;;;;;;17.22;79.87;102083.06;5075518;28;20006;-36
2022/07/14 01:11:42;;;;;;;;;;;;;;;17.38;77.18;102095.13;5076017;28;20116;-36
2022/07/14 01:14:08;;;;;;;9.30;2.30;;;;;;;17.17;80.01;102093.91;5075924;28;20007;-37
2022/07/14 01:16:34;;;;;;;;;;;;;;;17.38;77.52;102105.25;5076227;28;20126;-36
2022/07/14 01:18:59;;;;;;;10.18;2.65;;;;;;;17.17;79.85;102096.63;5075653;28;19958;-36
2022/07/14 01:21:25;;;;;;;;;;;;;;;17.40;77.19;102108.53;5076286;28;20081;-36
2022/07/14 01:23:50;;;;;;;7.10;2.45;;;;;;;17.15;79.54;102112.47;5075790;28;19938;-36
2022/07/14 01:26:16;;;;;;;;;;;;;;;17.38;77.55;102110.72;5076046;28;20514;-36
2022/07/14 01:28:42;;;;;;;6.33;2.30;;;;;;;17.27;79.64;102114.31;5075421;28;19988;-36
2022/07/14 01:31:07;;;;;;;;;;;;;;;17.41;77.13;102119.22;5076284;28;20025;-36
2022/07/14 01:33:33;;;;;;;8.10;2.20;;;;;;;17.22;79.27;102124.06;5075755;28;19919;-36
2022/07/14 01:35:58;;;;;;;;;;;;;;;17.39;77.57;102134.22;5076095;28;20024;-36
2022/07/14 01:38:23;;;;;;;11.82;2.78;;;;;;;17.15;79.33;102133.50;5075263;28;19919;-36
2022/07/14 01:40:48;;;;;;;;;;;;;;;17.34;77.11;102132.22;5075685;28;20045;-36
2022/07/14 01:43:14;;;;;;;7.87;2.23;;;;;;;16.98;80.35;102106.09;5075728;28;19920;-35
2022/07/14 01:45:39;;;;;;;;;;;;;;;17.31;77.52;102116.31;5076082;28;20052;-35
2022/07/14 01:48:05;;;;;;;9.00;3.00;;;;;;;17.10;80.64;102117.00;5075357;28;19916;-35
2022/07/14 01:50:30;;;;;;;;;;;;;;;17.28;77.51;102116.00;5075414;28;20282;-35
2022/07/14 01:52:56;;;;;;;13.35;3.55;;;;;;;16.97;80.14;102116.19;5075050;28;20000;-35
2022/07/14 01:55:21;;;;;;;;;;;;;;;17.16;77.97;102114.13;5075091;28;20028;-35
2022/07/14 01:57:46;;;;;;;7.10;2.35;;;;;;;16.99;80.80;102107.78;5075694;28;19913;-35
2022/07/14 02:00:11;;;;;;;;;;;;;;;17.17;78.06;102118.50;5074993;28;20119;-35
2022/07/14 02:02:37;;;;;;;9.60;2.50;;;;;;;17.00;80.52;102114.91;5074542;28;20006;-35
2022/07/14 02:05:02;;;;;;;;;;;;;;;17.14;78.34;102110.81;5074939;28;20082;-36
2022/07/14 02:07:27;;;;;;;10.10;2.83;;;;;;;16.88;80.42;102100.44;5075438;28;19919;-35
2022/07/14 02:12:37;;;;;;;10.07;2.88;;;;;;;16.75;81.07;102107.03;5074698;28;19935;-35
2022/07/14 02:15:03;;;;;;;;;;;;;;;16.94;78.66;102094.84;5073443;28;20029;-35
2022/07/14 02:17:28;;;;;;;9.63;3.35;;;;;;;16.77;80.58;102104.03;5074723;28;19999;-36
2022/07/14 02:19:53;;;;;;;;;;;;;;;16.89;78.54;102102.94;5074960;28;20036;-36
2022/07/14 02:22:19;;;;;;;9.38;2.72;;;;;;;16.66;81.36;102101.06;5074949;28;19908;-36
2022/07/14 02:24:44;;;;;;;;;;;;;;;16.83;78.88;102100.34;5074733;28;20038;-36
2022/07/14 02:27:09;;;;;;;7.60;3.10;;;;;;;16.57;81.43;102107.97;5074682;28;20236;-36
2022/07/14 02:29:34;;;;;;;8.30;3.05;;;;;;;16.48;81.88;102107.50;5073984;28;20647;-36
2022/07/14 02:32:00;;;;;;;8.68;2.92;;;;;;;16.38;82.20;102090.91;5074627;28;20107;-36
2022/07/14 02:34:25;;;;;;;;;;;;;;;16.64;79.74;102103.22;5074641;28;20107;-36
2022/07/14 02:36:50;;;;;;;7.83;2.90;;;;;;;16.37;82.15;102104.81;5074946;28;19963;-36
2022/07/14 02:39:16;;;;;;;;;;;;;;;16.55;79.64;102106.56;5074900;28;20425;-36
2022/07/14 02:41:42;;;;;;;8.75;2.75;;;;;;;16.23;82.70;102099.59;5074115;28;20420;-36
2022/07/14 02:44:08;;;;;;;;;;;;;;;16.44;79.83;102100.03;5075253;28;20381;-36
2022/07/14 02:46:34;;;;;;;8.88;3.15;;;;;;;16.22;83.38;102102.56;5073751;28;19915;-36
2022/07/14 02:48:59;;;;;;;;;;;;;;;16.40;80.36;102109.78;5074834;28;20036;-36
2022/07/14 02:51:24;;;;;;;7.57;2.67;;;;;;;16.20;83.00;102099.22;5074092;28;19976;-36
2022/07/14 02:53:50;;;;;;;;;;;;;;;16.35;80.42;102096.03;5073939;28;20031;-36
2022/07/14 02:56:15;;;;;;;10.77;2.83;;;;;;;16.04;83.05;102099.94;5074339;28;20049;-36
2022/07/14 02:58:40;;;;;;;;;;;;;;;16.26;80.60;102092.00;5074343;28;20025;-36
2022/07/14 03:01:07;;;;;;;8.90;2.67;;;;;;;15.97;82.95;102091.88;5073629;28;19920;-36
2022/07/14 03:03:34;;;;;;;9.18;3.53;;;;;;;15.85;84.00;102089.13;5073645;28;20040;-36
2022/07/14 03:06:05;;;;;;;10.77;3.78;;;;;;;15.83;84.40;102087.72;5073634;28;20043;-36
2022/07/14 03:08:31;;;;;;;10.70;3.33;;;;;;;15.78;84.61;102073.97;5073939;28;20037;-36
2022/07/14 03:10:56;;;;;;;;;;;;;;;16.00;81.60;102077.75;5074087;28;20362;-36
2022/07/14 03:13:21;;;;;;;7.90;2.83;;;;;;;15.83;84.31;102076.81;5073685;28;20379;-36
2022/07/14 03:15:46;;;;;;;;;;;;;;;15.97;81.67;102070.06;5074384;28;20024;-36
2022/07/14 03:18:12;;;;;;;9.00;2.70;;;;;;;15.85;83.96;102067.31;5073865;28;19913;-36
2022/07/14 03:20:37;;;;;;;;;;;;;;;15.97;81.70;102070.06;5074480;28;20468;-36
2022/07/14 03:23:02;;;;;;;8.27;2.40;;;;;;;15.69;84.06;102055.22;5073491;28;19977;-36
2022/07/14 03:25:27;;;;;;;;;;;;;;;15.91;81.88;102063.66;5073673;28;20406;-36
2022/07/14 03:27:54;;;;;;;9.20;2.90;;;;;;;15.66;84.19;102054.84;5073000;28;19919;-35
2022/07/14 03:30:19;;;;;;;9.43;3.22;;;;;;;15.48;85.08;102058.47;5073095;28;20025;-35
2022/07/14 03:32:45;;;;;;;;;;;;;;;15.74;82.07;102057.22;5074139;28;20033;-35
2022/07/14 03:35:10;;;;;;;8.67;3.07;;;;;;;15.59;84.71;102054.94;5073043;28;20328;-35
2022/07/14 03:37:36;;;;;;;8.55;2.95;;;;;;;15.54;84.83;102052.09;5073849;28;20599;-35
2022/07/14 03:40:06;;;;;;;8.85;2.90;;;;;;;15.46;85.40;102060.59;5073056;28;20428;-35
2022/07/14 03:42:31;;;;;;;9.77;2.67;;;;;;;15.27;85.74;102046.22;5073455;28;20094;-35
2022/07/14 03:44:56;;;;;;;;;;;;;;;15.63;83.13;102071.66;5073330;28;20024;-35
2022/07/14 03:47:22;;;;;;;9.30;2.70;;;;;;;15.51;85.18;102074.34;5072809;28;19908;-35
2022/07/14 03:49:47;;;;;;;;;;;;;;;15.65;83.07;102064.94;5074206;28;20071;-36
2022/07/14 03:52:13;;;;;;;15.55;2.95;;;;;;;15.57;84.99;102076.16;5073248;28;19926;-36
2022/07/14 03:54:42;;;;;;;12.35;3.55;;;;;;;15.44;85.62;102079.91;5072849;28;20055;-36
2022/07/14 03:57:07;;;;;;;10.27;3.30;;;;;;;15.33;86.00;102063.56;5073071;28;20024;-36
2022/07/14 03:59:32;;;;;;;;;;;;;;;15.60;83.25;102072.94;5073108;28;20031;-36
2022/07/14 04:01:57;;;;;;;9.23;2.83;;;;;;;15.30;84.96;102056.66;5073191;28;19917;-41
2022/07/14 04:04:23;;;;;;;12.85;3.05;;;;;;;15.39;85.81;102071.63;5071322;28;20354;-36
2022/07/14 04:06:48;;;;;;;;;;;;;;;15.54;83.80;102078.53;5073630;28;20035;-36
2022/07/14 04:09:13;;;;;;;8.63;2.53;;;;;;;15.35;85.90;102067.69;5073203;28;20310;-36
2022/07/14 04:11:39;;;;;;;12.38;3.20;;;;;;;15.25;86.01;102069.31;5073013;28;20279;-36
2022/07/14 04:14:04;;;;;;;;;;;;;;;15.50;83.63;102072.69;5073440;28;20036;-36
2022/07/14 04:16:29;;;;;;;12.10;3.43;;;;;;;15.25;85.80;102070.16;5072858;28;19996;-40
2022/07/14 04:18:55;;;;;;;10.90;3.03;;;;;;;15.10;86.87;102056.94;5072873;28;20265;-36
2022/07/14 04:21:20;;;;;;;;;;;;;;;15.32;84.39;102064.59;5072541;28;20028;-36
2022/07/14 04:23:45;;;;;;;7.70;2.90;;;;;;;15.28;86.71;102069.69;5072577;28;20016;-36
2022/07/14 04:26:11;;;;;;;;;;;;;;;15.44;84.51;102076.38;5073763;28;20433;-36
2022/07/14 04:28:36;;;;;;;9.47;3.03;;;;;;;15.32;86.61;102067.31;5072531;28;19945;-36
2022/07/14 04:31:02;;;;;;;8.83;3.00;;;;;;;15.31;86.42;102071.94;5072973;28;20358;-36
2022/07/14 04:33:28;;;;;;;9.80;3.15;;;;;;;15.19;86.93;102058.28;5072736;28;20103;-36
2022/07/14 04:35:53;;;;;;;;;;;;;;;15.49;84.84;102065.59;5072808;28;20119;-35
2022/07/14 04:38:18;;;;;;;10.20;2.90;;;;;;;15.29;86.51;102068.63;5072733;28;20330;-35
2022/07/14 04:40:50;;;;;;;;;;;;;;;15.50;84.48;102071.88;5075994;28;20107;-35
2022/07/14 04:43:17;;;;;;;9.77;3.08;;;;;;;15.35;86.34;102075.03;5076482;28;19909;-35
2022/07/14 04:45:42;;;;;;;9.02;3.22;;;;;;;15.32;87.06;102061.88;5076207;28;20388;-35
2022/07/14 04:48:07;;;;;;;;;;;;;;;15.52;85.04;102075.19;5076648;28;20042;-35
2022/07/14 04:53:17;;;;;;;15.45;3.67;;;;;;;15.34;86.79;102073.38;5076189;28;20043;-35
2022/07/14 04:55:42;;;;;;;;;;;;;;;15.50;85.66;102075.41;5076276;28;20040;-35
2022/07/14 04:58:07;;;;;;;11.98;3.25;;;;;;;15.41;86.63;102063.19;5076109;28;19913;-35
2022/07/14 05:00:33;;;;;;;7.03;2.83;;;;;;;15.57;85.34;102072.63;5075965;28;20036;-35
2022/07/14 05:02:58;;;;;;;8.37;2.50;;;;;;;15.60;85.43;102081.13;5076238;28;20277;-35
2022/07/14 05:05:23;;;;;;;9.70;3.28;;;;;;;15.66;86.12;102082.13;5076355;28;20259;-35
2022/07/14 05:07:48;;;;;;;;;;;;;;;15.89;84.68;102084.88;5076254;28;20029;-35
2022/07/14 05:10:14;;;;;;;11.30;2.97;;;;;;;15.79;85.66;102089.25;5075550;28;19914;-35
2022/07/14 05:12:39;;;;;;;;;;;;;;;16.00;84.19;102085.94;5076351;28;20028;-35
2022/07/14 05:15:06;;;;;;;13.05;4.22;;;;;;;15.98;85.17;102079.91;5076287;28;19908;-35
2022/07/14 05:17:31;;;;;;;13.90;3.47;;;;;;;16.01;85.28;102084.06;5076525;28;20029;-35
2022/07/14 05:19:57;;;;;;;;;;;;;;;16.14;83.52;102090.09;5076469;28;20028;-35
2022/07/14 05:22:23;;;;;;;12.32;3.25;;;;;;;15.94;84.52;102082.25;5075980;28;20425;-35
2022/07/14 05:24:48;;;;;;;13.00;3.55;;;;;;;16.01;84.73;102084.91;5075295;28;20032;-35
2022/07/14 05:27:13;;;;;;;;;;;;;;;16.25;83.27;102083.00;5076225;28;20112;-35
2022/07/14 05:29:39;;;;;;;15.57;3.97;;;;;;;16.04;83.42;102064.47;5076237;28;20017;-35
2022/07/14 05:32:05;;;;;;;11.00;2.85;;;;;;;16.20;84.67;102088.31;5075401;28;20406;-36
2022/07/14 05:34:30;;;;;;;;;;;;;;;16.33;83.29;102084.50;5076322;28;20509;-36
2022/07/14 05:36:56;;;;;;;11.80;3.57;;;;;;;16.12;83.49;102085.97;5075688;28;20418;-36
2022/07/14 05:39:21;;;;;;;10.32;3.80;;;;;;;16.06;83.21;102076.00;5076124;28;20028;-36
2022/07/14 05:41:47;;;;;;;;;;;;;;;16.27;82.90;102085.47;5075894;28;20452;-36
2022/07/14 05:44:12;;;;;;;9.57;3.90;;;;;;;15.94;83.30;102076.81;5075601;28;19992;-36
2022/07/14 05:46:37;;;;;;;;;;;;;;;16.15;83.28;102094.50;5075449;28;20111;-36
2022/07/14 05:49:03;;;;;;;9.57;3.30;;;;;;;16.25;85.04;102084.88;5074928;28;19919;-36
2022/07/14 05:51:28;;;;;;;;;;;;;;;16.45;82.77;102088.06;5074714;28;20052;-36
2022/07/14 05:53:53;;;;;;;11.43;3.70;;;;;;;16.35;82.81;102079.66;5073848;28;20406;-36
2022/07/14 05:56:19;;;;;;;;;;;;;;;16.58;82.36;102082.31;5075391;28;20032;-36
2022/07/14 05:58:46;;;;;;;11.90;3.80;;;;;;;16.52;82.04;102082.47;5074676;28;19912;-36
2022/07/14 06:01:12;;;;;;;14.73;3.72;;;;;;;16.63;82.51;102074.22;5074926;28;20293;-36
2022/07/14 06:03:37;;;;;;;;;;;;;;;16.86;80.97;102086.19;5075073;28;20075;-36
2022/07/14 06:06:05;;;;;;;14.85;3.60;;;;;;;16.91;81.07;102083.56;5074891;28;19917;-36
2022/07/14 06:08:31;;;;;;;11.25;3.15;;;;;;;16.94;80.30;102078.47;5075552;28;20039;-36
2022/07/14 06:10:56;;;;;;;;;;;;;;;17.10;79.74;102076.84;5074736;28;20020;-36
2022/07/14 06:13:26;;;;;;;10.02;3.60;;;;;;;16.73;79.98;102082.66;5075169;28;19913;-36
2022/07/14 06:15:52;;;;;;;11.95;3.50;;;;;;;16.61;80.56;102087.31;5074547;28;20082;-36
2022/07/14 06:18:18;;;;;;;;;;;;;;;16.78;79.74;102078.38;5075281;28;20024;-36
2022/07/14 06:20:43;;;;;;;13.35;4.60;;;;;;;16.75;80.33;102073.41;5074468;28;19957;-36
2022/07/14 06:23:11;;;;;;;;;;;;;;;16.99;79.95;102081.28;5075034;28;20389;-36
2022/07/14 06:25:37;;;;;;;12.65;3.78;;;;;;;17.12;78.54;102069.22;5074361;28;19975;-36
2022/07/14 06:28:04;;;;;;;10.70;3.67;;;;;;;17.25;78.79;102071.66;5074427;28;20032;-36
2022/07/14 06:30:30;;;;;;;12.38;3.88;;;;;;;17.30;77.12;102070.91;5074494;28;20029;-36
2022/07/14 06:32:55;;;;;;;;;;;;;;;17.51;77.74;102083.84;5074763;28;20354;-36
2022/07/14 06:35:21;;;;;;;10.95;3.85;;;;;;;17.55;77.40;102078.72;5074167;28;19908;-36
2022/07/14 06:37:46;;;;;;;;;;;;;;;17.71;76.73;102088.00;5074401;28;20036;-36
2022/07/14 06:40:11;;;;;;;11.90;3.57;;;;;;;17.72;75.77;102082.31;5074085;28;19920;-36
2022/07/14 06:42:37;;;;;;;;;;;;;;;17.97;76.64;102092.03;5074291;28;20287;-36
2022/07/14 06:45:02;;;;;;;10.77;3.50;;;;;;;17.98;76.14;102090.94;5073992;28;19919;-36
2022/07/14 06:47:30;;;;;;;;;;;;;;;18.12;74.68;102100.47;5073968;28;20039;-36
2022/07/14 06:49:56;;;;;;;11.85;3.42;;;;;;;18.00;74.78;102097.81;5074227;28;19909;-36
2022/07/14 06:52:21;;;;;;;11.70;3.13;;;;;;;17.92;73.50;102073.63;5073189;28;20072;-36
2022/07/14 06:54:47;;;;;;;;;;;;;;;18.15;74.63;102091.72;5074319;28;20473;-36
2022/07/14 06:57:12;;;;;;;10.52;3.28;;;;;;;18.09;74.20;102073.59;5074367;28;19954;-36
2022/07/14 06:59:37;;;;;;;;;;;;;;;18.25;73.71;102080.97;5074228;28;20048;-36
2022/07/14 07:02:03;;;;;;;7.78;2.90;;;;;;;18.15;72.92;102060.81;5073201;28;20007;-36
2022/07/14 07:04:28;;;;;;;;;;;;;;;18.39;72.46;102080.56;5073822;28;20041;-36
2022/07/14 07:06:53;;;;;;;10.60;2.57;;;;;;;18.29;73.14;102078.53;5073455;28;19924;-36
2022/07/14 07:09:19;;;;;;;;;;;;;;;18.43;73.78;102076.25;5073451;28;20282;-36
2022/07/14 07:11:49;;;;;;;12.40;3.17;;;;;;;18.45;72.42;102076.84;5073805;28;19955;-36
2022/07/14 07:14:15;;;;;;;9.90;2.35;;;;;;;18.42;71.93;102067.22;5073223;28;20028;-36
2022/07/14 07:16:40;;;;;;;10.77;3.03;;;;;;;18.52;71.69;102072.81;5073547;28;20029;-36
2022/07/14 07:19:05;;;;;;;7.45;2.67;;;;;;;18.52;71.22;102080.22;5073392;28;20173;-36
2022/07/14 07:21:31;;;;;;;12.18;3.42;;;;;;;18.44;71.31;102058.72;5072138;28;20113;-36
2022/07/14 07:23:57;;;;;;;11.90;2.60;;;;;;;18.59;71.47;102078.09;5072896;28;20495;-36
2022/07/14 07:26:24;;;;;;;;;;;;;;;18.75;70.95;102082.72;5073791;28;20448;-35
2022/07/14 07:28:52;;;;;;;8.52;2.70;;;;;;;18.56;69.42;102072.31;5072609;28;19912;-35
2022/07/14 07:31:17;;;;;;;6.95;2.83;;;;;;;18.66;69.98;102062.31;5073813;28;20077;-36
2022/07/14 07:33:42;;;;;;;;;;;;;;;18.84;71.09;102063.94;5073848;28;20107;-36
2022/07/14 07:36:08;;;;;;;8.55;2.88;;;;;;;18.76;71.08;102056.16;5073217;28;19912;-36
2022/07/14 07:38:33;;;;;;;;;;;;;;;18.91;70.86;102052.75;5074327;28;20449;-36
2022/07/14 07:41:01;;;;;;;8.82;2.28;;;;;;;18.75;68.86;102049.84;5071700;28;19915;-36
2022/07/14 07:43:27;;;;;;;7.80;2.50;;;;;;;18.83;68.53;102053.19;5072508;28;20496;-36
2022/07/14 07:45:52;;;;;;;10.75;2.78;;;;;;;18.85;68.59;102054.63;5071840;28;20041;-36
2022/07/14 07:48:17;;;;;;;;;;;;;;;19.05;69.54;102064.97;5073732;28;20487;-36
2022/07/14 07:50:44;;;;;;;7.28;1.92;;;;;;;19.15;67.89;102061.50;5072899;28;19924;-36
2022/07/14 07:53:11;;;;;;;7.30;2.10;;;;;;;19.03;65.61;102050.69;5073171;28;20032;-36
2022/07/14 07:55:36;;;;;;;6.38;2.03;;;;;;;19.07;66.91;102043.59;5072629;28;20028;-36
2022/07/14 07:58:02;;;;;;;11.63;2.50;;;;;;;19.07;66.91;102051.81;5073120;28;20435;-36
2022/07/14 08:00:28;;;;;;;7.45;2.30;;;;;;;19.15;66.14;102042.31;5073025;28;20036;-36
2022/07/14 08:02:54;;;;;;;7.88;2.47;;;;;;;19.15;66.41;102039.56;5073326;28;20435;-36
2022/07/14 08:05:24;;;;;;;;;;;;;;;19.48;68.01;102041.25;5073265;28;20048;-36
2022/07/14 08:07:50;;;;;;;6.20;2.25;;;;;;;19.42;66.21;102026.66;5072845;28;19908;-36
2022/07/14 08:10:15;;;;;;;;;;;;;;;19.71;66.97;102029.91;5073630;28;20029;-36
2022/07/14 08:12:41;;;;;;;5.70;2.20;;;;;;;19.48;64.37;102031.09;5072634;28;19916;-36
2022/07/14 08:15:08;;;;;;;6.65;2.20;;;;;;;19.43;64.46;102035.72;5072474;28;20098;-36
2022/07/14 08:17:33;;;;;;;8.60;2.80;;;;;;;19.44;65.12;102018.16;5073478;28;20025;-36
2022/07/14 08:19:59;;;;;;;;;;;;;;;19.72;64.56;102020.63;5073293;28;20029;-36
2022/07/14 08:22:25;;;;;;;4.70;2.15;;;;;;;19.61;63.51;102020.78;5072940;28;19987;-36
2022/07/14 08:24:51;;;;;;;9.73;2.60;;;;;;;19.58;62.17;102011.16;5072608;28;20476;-36
2022/07/14 08:27:16;;;;;;;6.55;1.83;;;;;;;19.70;61.10;102013.72;5072877;28;20040;-36
2022/07/14 08:29:42;;;;;;;;;;;;;;;19.90;62.85;102011.09;5072718;28;20131;-36
2022/07/14 08:32:08;;;;;;;6.25;2.10;;;;;;;19.91;61.06;102010.03;5072386;28;19923;-36
2022/07/14 08:34:33;;;;;;;6.88;1.73;;;;;;;19.86;61.67;101995.44;5072283;28;20155;-36
2022/07/14 08:36:59;;;;;;;6.13;1.77;;;;;;;19.98;60.77;102007.03;5072869;28;20032;-36
2022/07/14 08:39:25;;;;;;;6.30;1.73;;;;;;;20.22;61.42;102002.78;5071953;28;20060;-36
2022/07/14 08:41:51;;;;;;;;;;;;;;;20.42;62.49;102003.97;5072634;28;20438;-36
2022/07/14 08:44:17;;;;;;;6.15;2.30;;;;;;;20.51;61.26;102005.13;5071924;28;20430;-36
2022/07/14 08:46:43;;;;;;;7.75;2.65;;;;;;;20.43;59.97;101995.44;5072482;28;20051;-37
2022/07/14 08:49:09;;;;;;;6.38;1.90;;;;;;;20.57;61.21;102004.03;5072356;28;20029;-36
2022/07/14 08:51:37;;;;;;;6.72;2.10;;;;;;;20.60;61.59;101997.19;5072840;28;20048;-36
2022/07/14 08:54:03;;;;;;;8.68;2.63;;;;;;;20.90;60.74;102001.94;5071456;28;20107;-36
2022/07/14 08:56:30;;;;;;;6.65;2.00;;;;;;;20.81;59.16;101994.19;5072541;28;20115;-36
2022/07/14 08:58:56;;;;;;;10.40;2.55;;;;;;;21.20;58.44;101993.69;5071933;28;20032;-36
2022/07/14 09:01:22;;;;;;;7.68;2.70;;;;;;;21.11;57.21;101981.59;5072512;28;20496;-36
2022/07/14 09:03:49;;;;;;;7.05;2.08;;;;;;;21.29;56.31;101986.56;5072224;28;20029;-36
2022/07/14 09:06:51;;;;;;;7.22;2.33;;;;;;;21.41;57.79;102002.78;5072548;28;20032;-36
2022/07/14 09:09:23;;;;;;;7.18;2.20;;;;;;;21.38;55.03;101997.03;5054656;28;20029;-36
2022/07/14 09:12:01;;;;;;;6.93;1.77;;;;;;;21.42;54.94;102000.88;5072509;28;20528;-36
2022/07/14 09:15:44;;;;;;;5.00;1.67;;;;;;;21.27;55.01;101996.97;5072915;28;20032;-36
2022/07/14 09:17:17;;;;;;;5.43;1.90;;;;;;;21.12;55.16;101985.97;5071845;28;20074;-37
2022/07/14 09:20:07;;;;;;;7.05;1.50;;;;;;;21.51;56.26;101996.47;5072088;28;20412;-37
2022/07/14 09:22:36;;;;;;;8.80;2.72;;;;;;;21.77;55.49;102000.03;5072237;28;20048;-36
2022/07/14 09:25:04;;;;;;;6.88;2.05;;;;;;;21.83;54.16;101994.22;5071684;28;20033;-36
2022/07/14 09:27:30;;;;;;;4.57;1.55;;;;;;;21.89;54.07;101972.19;5074835;28;20388;-37
2022/07/14 09:29:55;;;;;;;8.05;2.13;;;;;;;22.22;53.52;101984.50;5075870;28;20028;-36
2022/07/14 09:32:42;;;;;;;6.05;1.77;;;;;;;22.23;53.58;101986.97;5075836;28;20032;-36
2022/07/14 09:35:09;;;;;;;7.35;2.42;;;;;;;22.31;52.02;101988.31;5033867;28;20069;-37
2022/07/14 09:37:37;;;;;;;5.68;1.92;;;;;;;22.44;53.96;101975.84;5031317;28;20061;-36
2022/07/14 09:40:04;;;;;;;115.72;85.13;;;;;;;22.43;52.26;101986.03;5033009;28;20067;-36
2022/07/14 09:43:03;;;;;;;22.08;13.38;;;;;;;22.42;53.88;101978.88;5033021;28;20561;-36
2022/07/14 09:45:36;;;;;;;8.63;3.72;;;;;;;22.47;52.41;101976.09;4993725;28;20049;-36
2022/07/14 09:48:03;;;;;;;58.95;9.13;;;;;;;22.53;51.45;101985.16;5009603;28;20041;-37
2022/07/14 09:51:01;;;;;;;103.88;19.55;;;;;;;22.46;52.25;101973.63;5012807;28;20060;-36
2022/07/14 09:53:31;;;;;;;185.77;34.97;;;;;;;22.74;51.13;101988.63;5013013;28;20049;-37
2022/07/14 09:56:04;;;;;;;18.23;5.20;;;;;;;22.56;50.70;101982.66;5013042;28;20076;-37
2022/07/14 09:58:33;;;;;;;46.90;9.35;;;;;;;22.63;50.34;101972.13;5012822;28;20557;-37
2022/07/14 10:01:01;;;;;;;8.13;2.15;;;;;;;22.80;48.17;101984.75;5012769;28;20044;-37
2022/07/14 10:03:29;;;;;;;6.95;1.60;;;;;;;23.09;48.49;101973.81;5013141;28;20095;-37
2022/07/14 10:05:56;;;;;;;7.60;2.47;;;;;;;23.04;46.87;101995.91;5013171;28;20537;-37
2022/07/14 10:08:25;;;;;;;5.30;1.83;;;;;;;22.77;47.17;101980.59;5013801;28;20172;-37
2022/07/14 10:10:52;;;;;;;5.10;1.50;;;;;;;22.44;47.69;101987.69;5012676;28;20481;-37
2022/07/14 10:13:19;;;;;;;4.07;1.13;;;;;;;22.48;50.67;101988.78;5071332;28;20393;-37
2022/07/14 10:15:46;;;;;;;6.25;1.88;;;;;;;22.71;49.94;101992.78;5074403;28;20032;-37
2022/07/14 10:18:12;;;;;;;8.35;1.75;;;;;;;22.52;51.53;101998.13;5074462;28;20036;-37
2022/07/14 10:20:39;;;;;;;6.90;1.35;;;;;;;22.79;49.71;102005.13;5074629;28;20025;-37
2022/07/14 10:23:05;;;;;;;5.32;1.10;;;;;;;23.08;46.75;101995.06;5075339;28;20385;-37
2022/07/14 10:25:31;;;;;;;3.78;1.23;;;;;;;23.35;46.31;101996.47;5074867;28;20107;-37
2022/07/14 10:27:57;;;;;;;4.93;1.05;;;;;;;23.45;47.19;101990.88;5074581;28;20103;-37
2022/07/14 10:31:17;;;;;;;3.35;1.10;;;;;;;23.77;47.14;101998.59;5074503;28;20067;-35
2022/07/14 10:34:04;;;;;;;2.67;0.90;;;;;;;23.78;46.80;101988.38;5012855;28;20029;-35
2022/07/14 10:36:39;;;;;;;3.47;0.90;;;;;;;23.81;44.05;102004.34;5012729;28;20026;-36
2022/07/14 10:39:04;;;;;;;3.75;1.15;;;;;;;23.85;43.91;101986.91;4996193;28;20088;-36
2022/07/14 10:41:38;;;;;;;3.20;1.00;;;;;;;23.93;44.13;101995.69;5012759;28;20046;-36
2022/07/14 10:44:18;;;;;;;4.45;1.27;;;;;;;24.01;43.87;101989.47;5012640;28;20269;-36
2022/07/14 10:46:49;;;;;;;3.72;1.35;;;;;;;24.15;43.35;101990.41;5012776;28;20034;-36
2022/07/14 10:49:16;;;;;;;6.18;1.10;;;;;;;24.24;42.23;101985.88;5012075;28;20038;-36
2022/07/14 10:51:49;;;;;;;5.03;1.17;;;;;;;24.19;43.62;101969.38;5012075;28;20060;-37
2022/07/14 10:54:24;;;;;;;2.80;1.23;;;;;;;24.09;44.15;101969.50;5012108;28;20537;-37
2022/07/14 10:57:06;;;;;;;4.22;1.50;;;;;;;24.04;44.20;101981.44;5012761;28;20092;-37
2022/07/14 10:59:33;;;;;;;5.00;1.30;;;;;;;23.97;43.79;101974.63;5012154;28;20040;-37
2022/07/14 11:02:13;;;;;;;6.38;1.30;;;;;;;24.20;45.33;101962.72;5011988;28;20052;-37
2022/07/14 11:04:56;;;;;;;4.30;1.00;;;;;;;24.44;44.59;101981.25;5011756;28;20470;-37
2022/07/14 11:07:40;;;;;;;4.97;1.15;;;;;;;24.62;41.82;101981.25;5043224;28;20083;-37
2022/07/14 11:10:14;;;;;;;2.10;0.70;;;;;;;24.57;40.38;101984.09;5074129;28;20429;-37
2022/07/14 11:13:04;;;;;;;2.78;1.00;;;;;;;24.70;41.91;101976.19;5073363;28;20035;-37
2022/07/14 11:15:59;;;;;;;10.90;1.70;;;;;;;24.51;40.33;101984.47;5073569;28;20050;-37
2022/07/14 11:18:37;;;;;;;4.43;1.50;;;;;;;25.00;39.60;101989.56;5074051;28;20017;-37
2022/07/14 11:21:19;;;;;;;4.47;1.20;;;;;;;24.89;41.13;101990.84;5073804;28;20039;-37
2022/07/14 11:23:48;;;;;;;3.45;1.25;;;;;;;24.70;40.63;101992.78;5073566;28;20025;-37
2022/07/14 11:26:32;;;;;;;3.70;1.10;;;;;;;24.87;41.82;101987.53;5074155;28;20356;-37
2022/07/14 11:28:58;;;;;;;3.47;1.10;;;;;;;24.92;40.43;101979.97;5073930;28;20029;-37
2022/07/14 11:31:23;;;;;;;4.78;1.33;;;;;;;25.02;40.89;101984.53;5073158;28;20111;-37
2022/07/14 11:36:43;;;;;;;6.82;1.35;;;;;;;24.76;41.93;101980.53;5073518;28;20197;-36
2022/07/14 11:39:15;;;;;;;5.70;1.30;;;;;;;24.64;43.12;101961.59;5073698;28;20479;-36
2022/07/14 11:41:46;;;;;;;4.32;1.30;;;;;;;24.70;44.18;101984.50;5073205;28;20032;-37
2022/07/14 11:44:29;;;;;;;3.92;1.48;;;;;;;24.88;42.80;101978.94;5073558;28;20028;-37
2022/07/14 11:46:58;;;;;;;5.20;1.70;;;;;;;24.70;43.62;101988.09;5073087;28;20380;-37
2022/07/14 11:49:25;;;;;;;5.07;1.30;;;;;;;24.72;41.93;101980.28;5072109;28;20083;-36
2022/07/14 11:51:53;;;;;;;4.80;1.33;;;;;;;24.47;42.25;101966.84;5072839;28;20411;-37